首页
METAR-TAF:

METAR-TAF

机场 :

瑟克特夫卡爾, 俄罗斯

纬度: 61-43N, 经度: 050-50E, 海拔: 119米

当前天气观测

该预报发布于37分钟前的12:30 UTC
风速4节,风向南转西南
温度 12°C
湿度 76%
气压 1021 hPa
能见度10公里或以上
散云层高于3200英尺, 积雨云.
小阵雨

METAR: UUYY 251230Z 20002MPS 9999 -SHRA SCT032CB 12/08 Q1021 R36/CLRD61 NOSIG RMK QFE757/1009

时间: 16:07 (13:07 UTC)

预报

该预报发布于2小时和7分钟前的11:00 UTC
预报有效从25日的 12点(UTC)到 26日的 12点(UTC)
风速6节,风向
能见度10公里或以上
多云层高于1600英尺
多云层高于2000英尺, 积雨云.
短暂存在
从 25日的 12点(UTC)到 25日的 21点(UTC)
风速6节,风向西南,有时为16节阵风
能見度: 6000
少量云层高于1100英尺
多云层高于1600英尺, 积雨云.
小阵雨
从 25日的 2100点(UTC)
风速6节,风向西转西南,有时为16节阵风
能見度: 6000
多云层高于1600英尺
多云层高于2000英尺, 积雨云.
短暂存在
从 25日的 21点(UTC)到 26日的 06点(UTC)
能見度: 3100
少量云层高于500英尺
多云层高于1600英尺, 积雨云.
小阵雨, 轻雾

TAF: UUYY 251100Z 2512/2612 19003MPS 9999 BKN016 BKN020CB TEMPO 2512/2521 23003G08MPS 6000 -SHRA FEW011 BKN016CB FM252100 24003G08MPS 6000 BKN016 BKN020CB TEMPO 2521/2606 3100 -SHRA BR FEW005 BKN016CB

超过4000个机场的气象观测和天气预报(METAR&TAF报告)。

可查询的气象台以黄色和红色小点在地图上表示。

将鼠标移到小点上方,可查看气象台名称。

然后点击查看天气观测和预报。

如需切换地图:点击带黑十字的绿色按钮放大地图;点击带横线的绿色按钮缩小地图;或者点击绿色箭头查看邻近地区的地图。


METAR-TAF: